Time;durP1;ratioP1;P1;durP2;ratioP2;P2;SDS_P1;SDS_P2;PMS_P1;PMS_P2;Temp;Humidity;BMP_temperature;BMP_pressure;BME280_temperature;BME280_humidity;BME280_pressure;Samples;Min_cycle;Max_cycle;Signal;HPM_P1;HPM_P2
2023/08/01 00:02:02;;;;;;;9.27;7.70;;;;;;;-144.30;67.44;84120.41;5112854;28;20226;-50
2023/08/01 00:05:07;;;;;;;7.72;7.22;;;;;;;-144.30;67.58;84100.53;5113843;28;20205;-55
2023/08/01 00:08:11;;;;;;;7.32;6.90;;;;;;;-144.30;67.37;84098.56;5113923;28;20196;-50
2023/08/01 00:11:00;;;;;;;7.53;6.88;;;;;;;-144.30;66.49;84084.66;5111563;28;20589;-53
2023/08/01 00:14:01;;;;;;;7.65;7.03;;;;;;;-144.30;66.66;84128.34;5112170;28;20194;-54
2023/08/01 00:16:47;;;;;;;7.72;6.97;;;;;;;-144.30;65.95;84088.63;5109768;28;20190;-53
2023/08/01 00:19:46;;;;;;;7.82;7.05;;;;;;;-144.30;66.11;84130.34;5112093;28;20220;-54
2023/08/01 00:22:44;;;;;;;;;;;;;;;;;;;;;
2023/08/01 00:25:51;;;;;;;8.02;7.22;;;;;;;-144.30;66.23;84138.28;5112253;28;20190;-52
2023/08/01 00:28:39;;;;;;;7.60;6.80;;;;;;;-144.30;66.22;84118.41;5112978;28;20814;-49
2023/08/01 00:31:32;;;;;;;7.72;6.90;;;;;;;-144.30;65.84;84120.41;5113363;28;20190;-49
2023/08/01 00:34:20;;;;;;;7.03;6.53;;;;;;;-144.30;65.74;84197.91;5112596;28;20312;-50
2023/08/01 00:37:08;;;;;;;7.05;6.43;;;;;;;-144.30;65.62;84144.25;5109441;28;20194;-52
2023/08/01 00:40:05;;;;;;;7.30;6.20;;;;;;;-144.30;66.06;84176.06;5111914;28;20199;-53
2023/08/01 00:42:58;;;;;;;6.68;6.00;;;;;;;-144.30;65.59;84150.22;5113036;28;20685;-53
2023/08/01 00:45:49;;;;;;;7.00;6.38;;;;;;;-144.30;65.47;84132.34;5112810;28;20201;-49
2023/08/01 00:48:41;;;;;;;6.97;6.47;;;;;;;-144.30;64.66;84168.09;5113161;28;20273;-50
2023/08/01 00:51:30;;;;;;;6.10;5.68;;;;;;;-144.30;64.92;84170.09;5112831;28;20580;-52
2023/08/01 00:54:30;;;;;;;6.97;6.25;;;;;;;-144.30;64.46;84199.91;5113481;28;20201;-49
2023/08/01 00:57:14;;;;;;;6.07;5.47;;;;;;;-144.30;64.43;84201.88;5113505;28;20199;-49
2023/08/01 01:00:27;;;;;;;;;;;;;;;;;;;;;
2023/08/01 01:03:14;;;;;;;6.65;6.05;;;;;;;-144.30;64.44;84166.13;5109438;28;20612;-49
2023/08/01 01:06:06;;;;;;;6.28;5.78;;;;;;;-144.30;64.11;84170.09;5112405;28;20198;-53
2023/08/01 01:09:08;;;;;;;5.63;5.22;;;;;;;-144.30;63.76;84176.06;5108446;28;20202;-50
2023/08/01 01:12:07;;;;;;;7.68;6.03;;;;;;;-144.30;63.74;84187.97;5112207;28;20198;-49
2023/08/01 01:15:11;;;;;;;6.43;6.03;;;;;;;-144.30;63.80;84207.84;5110819;28;20194;-49
2023/08/01 01:18:07;;;;;;;6.15;5.28;;;;;;;-144.30;63.74;84184.00;5111705;28;20673;-49
2023/08/01 01:21:05;;;;;;;6.60;6.10;;;;;;;-144.30;63.76;84221.75;5112308;28;20673;-49
2023/08/01 01:24:03;;;;;;;5.80;5.32;;;;;;;-144.30;63.76;84215.78;5112253;28;20458;-49
2023/08/01 01:27:04;;;;;;;4.82;4.55;;;;;;;-144.30;63.63;84205.88;5111841;28;20198;-49
2023/08/01 01:29:51;;;;;;;6.05;5.65;;;;;;;-144.30;63.53;84209.84;5112089;28;20197;-50
2023/08/01 01:35:37;;;;;;;5.68;5.20;;;;;;;-144.30;63.77;84235.66;5108324;28;20222;-51
2023/08/01 01:38:36;;;;;;;;;;;;;;;;;;;;;
2023/08/01 01:41:23;;;;;;;5.50;5.18;;;;;;;-144.30;63.50;84223.75;5112028;28;20574;-53
2023/08/01 01:44:20;;;;;;;5.70;5.22;;;;;;;-144.30;63.38;84211.81;5111065;28;20714;-52
2023/08/01 01:47:06;;;;;;;6.18;5.47;;;;;;;-144.30;63.55;84223.75;5110501;28;20584;-49
2023/08/01 01:49:48;;;;;;;5.22;4.93;;;;;;;-144.30;63.55;84172.06;5111835;28;20202;-49
2023/08/01 01:52:35;;;;;;;5.82;5.53;;;;;;;-144.30;63.79;84203.88;5111755;28;20197;-50
2023/08/01 01:55:39;;;;;;;5.97;5.28;;;;;;;-144.30;64.36;84225.75;5111978;28;20194;-53
2023/08/01 02:01:32;;;;;;;7.18;6.57;;;;;;;-144.30;64.52;84267.47;5110405;28;20198;-50
2023/08/01 02:04:19;;;;;;;5.68;5.28;;;;;;;-144.30;64.47;84299.25;5109014;28;20615;-53
2023/08/01 02:07:17;;;;;;;;;;;;;;;;;;;;;
2023/08/01 02:10:01;;;;;;;8.07;5.93;;;;;;;-144.30;64.37;84263.50;5111108;28;20206;-49
2023/08/01 02:12:51;;;;;;;5.72;5.43;;;;;;;-144.30;64.60;84283.38;5111894;28;20195;-49
2023/08/01 02:15:46;;;;;;;5.68;5.38;;;;;;;-144.30;64.54;84283.38;5109697;28;20198;-49
2023/08/01 02:18:36;;;;;;;5.88;5.47;;;;;;;-144.30;64.15;84307.22;5111447;28;20202;-53
2023/08/01 02:21:18;;;;;;;5.90;5.40;;;;;;;-144.30;64.35;84337.03;5108691;28;20700;-53
2023/08/01 02:24:06;;;;;;;5.70;5.30;;;;;;;-144.30;64.48;84295.28;5110174;28;20230;-56
2023/08/01 02:26:45;;;;;;;5.38;5.07;;;;;;;-144.30;64.29;84273.44;5111403;28;20234;-49
2023/08/01 02:32:21;;;;;;;6.22;5.63;;;;;;;-144.30;63.42;84295.28;5110327;28;20190;-53
2023/08/01 02:35:16;;;;;;;5.45;5.05;;;;;;;-144.30;63.31;84259.50;5110395;28;20202;-49
2023/08/01 02:37:59;;;;;;;5.43;4.63;;;;;;;-144.30;62.97;84257.53;5110917;28;20259;-49
2023/08/01 02:40:41;;;;;;;4.90;4.60;;;;;;;-144.30;62.92;84275.41;5109693;28;20194;-49
2023/08/01 02:43:36;;;;;;;;;;;;;;;;;;;;;
2023/08/01 02:46:17;;;;;;;5.25;4.95;;;;;;;-144.30;63.19;84279.38;5110987;28;20206;-51
2023/08/01 02:49:06;;;;;;;5.78;5.03;;;;;;;-144.30;63.30;84303.25;5111149;28;20194;-53
2023/08/01 02:51:47;;;;;;;9.77;4.68;;;;;;;-144.30;63.41;84271.44;5110991;28;20263;-54
2023/08/01 02:54:37;;;;;;;6.07;5.60;;;;;;;-144.30;63.40;84321.13;5110769;28;20198;-53
2023/08/01 02:57:04;;;;;;;7.38;5.50;;;;;;;-144.30;63.36;84273.44;5110668;28;20199;-48
2023/08/01 03:02:31;;;;;;;5.70;5.20;;;;;;;-144.30;63.40;84255.53;5110356;28;20780;-50
2023/08/01 03:05:14;;;;;;;6.68;5.97;;;;;;;-144.30;63.41;84311.19;5110527;28;20252;-49
2023/08/01 03:08:08;;;;;;;5.80;5.40;;;;;;;-144.30;63.62;84295.28;5110570;28;20206;-54
2023/08/01 03:11:04;;;;;;;5.70;5.40;;;;;;;-144.30;63.88;84297.28;5110580;28;20285;-53
2023/08/01 03:13:59;;;;;;;;;;;;;;;;;;;;;
2023/08/01 03:16:36;;;;;;;6.30;4.65;;;;;;;-144.30;63.66;84287.34;5122119;27;20201;-53
2023/08/01 03:19:15;;;;;;;7.38;6.65;;;;;;;-144.30;65.83;84189.97;5119059;27;20202;-54
2023/08/01 03:21:48;;;;;;;6.90;6.40;;;;;;;-144.30;66.80;84346.97;5130450;27;20236;-50
2023/08/01 03:24:18;;;;;;;7.35;6.57;;;;;;;-144.30;67.19;84341.00;5130291;27;20221;-50
2023/08/01 03:26:50;;;;;;;8.35;6.50;;;;;;;-144.30;67.56;84398.63;5130095;27;20223;-53
2023/08/01 03:29:25;;;;;;;9.77;6.78;;;;;;;-144.30;68.19;84354.91;5130393;27;20198;-54
2023/08/01 03:31:54;;;;;;;7.50;6.80;;;;;;;-144.30;68.68;84398.63;5129784;27;20201;-49
2023/08/01 03:34:31;;;;;;;9.05;6.15;;;;;;;-144.30;68.18;84362.84;5130044;27;20225;-51
2023/08/01 03:36:59;;;;;;;6.10;5.70;;;;;;;-144.30;67.67;84255.53;5130497;27;20611;-51
2023/08/01 03:39:34;;;;;;;6.22;5.72;;;;;;;-144.30;66.70;84380.75;5130601;27;20201;-53
2023/08/01 03:42:02;;;;;;;6.28;5.85;;;;;;;-144.30;65.92;84358.88;5130582;27;20570;-49
2023/08/01 03:44:32;;;;;;;5.80;5.10;;;;;;;-144.30;66.00;84339.00;5129704;27;20225;-50
2023/08/01 03:47:07;;;;;;;5.72;5.30;;;;;;;-144.30;65.81;84372.78;5130051;27;20190;-54
2023/08/01 03:49:42;;;;;;;7.18;6.50;;;;;;;-144.30;65.58;84333.06;5130327;27;20197;-54
2023/08/01 03:52:12;;;;;;;8.10;5.93;;;;;;;-144.30;65.09;84358.88;5130582;27;20292;-53
2023/08/01 03:54:49;;;;;;;6.82;6.18;;;;;;;-144.30;65.06;84342.97;5130173;28;20266;-54
2023/08/01 03:57:25;;;;;;;15.60;13.93;;;;;;;-144.30;64.96;84299.25;5130452;28;20190;-53
2023/08/01 04:00:03;;;;;;;8.95;8.25;;;;;;;-144.30;64.66;84319.13;5127662;28;20209;-53
2023/08/01 04:02:48;;;;;;;8.10;7.40;;;;;;;-144.30;64.51;84285.34;5117228;28;20205;-53
2023/08/01 04:05:43;;;;;;;9.77;5.68;;;;;;;-144.30;64.08;84249.59;5107741;28;20251;-54
2023/08/01 04:08:36;;;;;;;6.13;4.80;;;;;;;-144.30;63.87;84279.38;5108989;28;20198;-55
2023/08/01 04:11:18;;;;;;;10.23;5.70;;;;;;;-144.30;64.01;84263.50;5109717;28;20755;-54
2023/08/01 04:14:08;;;;;;;14.52;8.77;;;;;;;-144.30;63.87;84251.56;5108869;28;20201;-50
2023/08/01 04:16:58;;;;;;;13.02;6.50;;;;;;;-144.30;63.65;84249.59;5108210;28;20217;-50
2023/08/01 04:19:54;;;;;;;7.75;5.97;;;;;;;-144.30;63.48;84235.66;5108719;28;20198;-49
2023/08/01 04:22:34;;;;;;;10.38;6.88;;;;;;;-144.30;63.06;84201.88;5108650;28;20269;-50
2023/08/01 04:25:19;;;;;;;20.75;10.73;;;;;;;-144.30;62.88;84233.69;5126319;28;20680;-53
2023/08/01 04:27:48;;;;;;;7.57;6.45;;;;;;;-144.30;62.30;84191.94;5130070;28;20198;-49
2023/08/01 04:30:20;;;;;;;11.13;6.57;;;;;;;-144.30;61.57;84154.19;5128707;28;20198;-50
2023/08/01 04:33:03;;;;;;;11.02;5.75;;;;;;;-144.30;61.21;84116.44;5128373;28;20579;-49
2023/08/01 04:35:52;;;;;;;8.13;5.75;;;;;;;-144.30;60.12;84080.66;5128342;28;20202;-50
2023/08/01 04:38:45;;;;;;;15.30;8.95;;;;;;;-144.30;59.15;83999.19;5128510;28;20289;-52
2023/08/01 04:41:53;;;;;;;;;;;;;;;;;;;;;
2023/08/01 04:44:38;;;;;;;8.45;6.60;;;;;;;-144.30;53.43;83659.41;5128706;27;20729;-53
2023/08/01 04:47:35;;;;;;;5.80;5.28;;;;;;;-144.30;49.86;83413.03;5134035;27;20229;-51
2023/08/01 04:50:28;;;;;;;13.00;8.32;;;;;;;-144.30;46.14;83109.06;5131167;27;20216;-53
2023/08/01 04:53:11;;;;;;;14.93;6.63;;;;;;;-144.30;44.63;82914.38;5132016;27;20194;-51
2023/08/01 04:56:14;;;;;;;6.90;5.38;;;;;;;-144.30;42.61;82763.41;5133571;27;20202;-50
2023/08/01 04:59:01;;;;;;;6.18;5.50;;;;;;;-144.30;40.47;82535.00;5130039;27;20201;-49
2023/08/01 05:01:53;;;;;;;7.13;5.63;;;;;;;-144.30;40.38;82616.44;5114166;27;20202;-50
2023/08/01 05:04:40;;;;;;;9.02;5.45;;;;;;;-144.30;40.12;82650.19;5111662;28;20218;-50
2023/08/01 05:07:34;;;;;;;7.57;5.22;;;;;;;-144.30;41.57;82711.78;5113232;28;20194;-51
2023/08/01 05:10:20;;;;;;;10.75;5.95;;;;;;;-144.30;41.06;82654.16;5112319;28;20235;-50
2023/08/01 05:13:12;;;;;;;6.95;4.85;;;;;;;-144.30;40.10;82568.75;5112341;28;20198;-54
2023/08/01 05:16:01;;;;;;;5.25;4.95;;;;;;;-144.30;39.36;82467.44;5111647;28;20240;-53
2023/08/01 05:18:35;;;;;;;10.52;5.65;;;;;;;-144.30;38.32;82338.34;5112832;28;20286;-53
2023/08/01 05:21:30;;;;;;;7.28;5.13;;;;;;;-144.30;37.47;82199.31;5111215;28;20589;-53
2023/08/01 05:24:06;;;;;;;9.88;6.88;;;;;;;-144.30;37.04;82098.03;5111359;28;20612;-54
2023/08/01 05:27:03;;;;;;;;;;;;;;;;;;;;;
2023/08/01 05:29:40;;;;;;;13.93;6.72;;;;;;;-144.30;38.30;82338.34;5111078;28;20198;-54
2023/08/01 05:32:36;;;;;;;11.77;6.80;;;;;;;-144.30;38.31;82304.59;5110863;28;20580;-53
2023/08/01 05:35:21;;;;;;;13.65;8.77;;;;;;;-144.30;37.56;82121.88;5111094;28;20395;-54
2023/08/01 05:38:19;;;;;;;16.60;5.85;;;;;;;-144.30;35.64;81804.09;5112345;28;20231;-51
2023/08/01 05:41:07;;;;;;;27.52;23.77;;;;;;;-144.30;33.92;81430.78;5112168;28;20206;-51
2023/08/01 05:43:57;;;;;;;8.15;7.30;;;;;;;-144.30;32.24;81240.16;5112288;28;20254;-56
2023/08/01 05:46:42;;;;;;;9.15;5.53;;;;;;;-144.30;31.86;81053.53;5110136;28;20198;-53
2023/08/01 05:49:49;;;;;;;5.72;3.83;;;;;;;-144.30;31.84;81119.06;5112718;28;20194;-55
2023/08/01 05:52:48;;;;;;;7.40;5.05;;;;;;;-144.30;32.27;81212.38;5112076;28;20196;-55
2023/08/01 05:55:45;;;;;;;5.93;5.35;;;;;;;-144.30;31.75;81117.06;5109962;28;20201;-56
2023/08/01 06:01:26;;;;;;;12.00;3.72;;;;;;;-144.30;30.52;80761.69;5111293;28;20205;-51
2023/08/01 06:04:24;;;;;;;;;;;;;;;;;;;;;
2023/08/01 06:07:09;;;;;;;7.90;4.72;;;;;;;-144.30;29.92;80650.50;5111062;27;20204;-53
2023/08/01 06:10:05;;;;;;;5.05;4.10;;;;;;;-144.30;30.33;80837.13;5111589;28;20202;-54
2023/08/01 06:12:52;;;;;;;9.77;8.85;;;;;;;-144.30;30.43;80932.41;5110214;28;20233;-50
2023/08/01 06:15:41;;;;;;;6.57;4.07;;;;;;;-144.30;31.14;80997.94;5111736;28;20674;-50
2023/08/01 06:18:20;;;;;;;7.93;7.35;;;;;;;-144.30;29.84;80807.34;5110760;28;20586;-55
2023/08/01 06:21:21;;;;;;;6.88;5.80;;;;;;;-144.30;28.75;80452.00;5110685;28;20204;-53
2023/08/01 06:24:10;;;;;;;7.45;5.38;;;;;;;-144.30;28.56;80410.31;5109124;28;20230;-53
2023/08/01 06:26:59;;;;;;;3.50;3.28;;;;;;;-144.30;28.80;80453.97;5111317;28;20205;-49
2023/08/01 06:29:59;;;;;;;;;;;;;;;;;;;;;
2023/08/01 06:32:49;;;;;;;4.53;3.85;;;;;;;-144.30;29.09;80692.19;5110741;28;20202;-51
2023/08/01 06:35:44;;;;;;;5.85;3.90;;;;;;;-144.30;29.38;80696.16;5109647;28;20198;-50
2023/08/01 06:38:48;;;;;;;4.13;3.83;;;;;;;-144.30;29.70;80858.97;5109855;28;20198;-49
2023/08/01 06:41:43;;;;;;;6.13;3.80;;;;;;;-144.30;28.71;80710.06;5111031;28;20205;-50
2023/08/01 06:47:35;;;;;;;3.38;3.05;;;;;;;-144.30;28.12;80592.94;5109843;28;20273;-54
2023/08/01 06:50:25;;;;;;;3.60;3.40;;;;;;;-144.30;28.35;80650.50;5108714;28;20604;-52
2023/08/01 06:53:22;;;;;;;3.05;2.90;;;;;;;-144.30;28.79;80823.22;5110268;28;20230;-50
2023/08/01 06:56:14;;;;;;;3.40;3.20;;;;;;;-144.30;29.46;81029.72;5110753;28;20264;-53
2023/08/01 06:59:05;;;;;;;3.53;3.20;;;;;;;-144.30;29.42;81117.06;5110807;28;20198;-52
2023/08/01 07:02:00;;;;;;;6.10;4.53;;;;;;;-144.30;30.11;81097.22;5110225;28;20645;-49
2023/08/01 07:04:52;;;;;;;4.13;3.80;;;;;;;-144.30;29.79;81115.09;5109183;28;20229;-53
2023/08/01 07:07:40;;;;;;;4.22;3.50;;;;;;;-144.30;29.51;81128.97;5110820;28;20682;-54
2023/08/01 07:10:10;;;;;;;4.03;3.15;;;;;;;-144.30;29.78;81105.16;5110404;28;20230;-52
2023/08/01 07:13:04;;;;;;;3.53;3.30;;;;;;;-144.30;30.06;81130.97;5110330;28;20729;-51
2023/08/01 07:15:54;;;;;;;4.38;3.10;;;;;;;-144.30;29.51;81037.66;5110585;28;20186;-52
2023/08/01 07:18:53;;;;;;;4.13;3.25;;;;;;;-144.30;29.39;81057.50;5109879;28;20233;-53
2023/08/01 07:21:48;;;;;;;2.85;2.75;;;;;;;-144.30;30.43;81367.25;5110376;28;20670;-50
2023/08/01 07:24:40;;;;;;;5.22;3.22;;;;;;;-144.30;29.94;81236.19;5109825;28;20229;-51
2023/08/01 07:27:37;;;;;;;4.50;4.07;;;;;;;-144.30;30.23;81345.41;5110030;28;20707;-50
2023/08/01 07:30:22;;;;;;;3.92;3.72;;;;;;;-144.30;29.92;81265.97;5111232;28;20198;-51
2023/08/01 07:33:12;;;;;;;5.32;4.93;;;;;;;-144.30;29.83;81200.47;5110085;28;20216;-49
2023/08/01 07:36:08;;;;;;;4.20;3.90;;;;;;;-144.30;29.65;81184.56;5105031;28;20247;-51
2023/08/01 07:38:56;;;;;;;6.25;3.30;;;;;;;-144.30;29.50;81260.03;5110075;28;20194;-51
2023/08/01 07:44:44;;;;;;;3.83;3.38;;;;;;;-144.30;28.42;80843.09;5109318;28;20321;-50
2023/08/01 07:53:43;;;;;;;3.30;3.03;;;;;;;-144.30;27.51;80477.81;5107129;28;20662;-55
2023/08/01 07:56:39;;;;;;;;;;;;;;;;;;;;;
2023/08/01 07:59:23;;;;;;;5.10;3.83;;;;;;;-144.30;26.94;80144.31;5109508;28;20205;-53
2023/08/01 08:02:12;;;;;;;6.38;5.45;;;;;;;-144.30;26.64;80037.13;5108924;28;20698;-50
2023/08/01 08:05:07;;;;;;;5.28;3.80;;;;;;;-144.30;26.53;80207.84;5109179;28;20615;-53
2023/08/01 08:07:58;;;;;;;6.97;3.35;;;;;;;-144.30;26.51;80164.16;5107946;28;20297;-54
2023/08/01 08:11:05;;;;;;;;;;;;;;;;;;;;;
2023/08/01 08:14:04;;;;;;;6.65;3.25;;;;;;;-144.30;27.02;80315.03;5108235;28;20206;-53
2023/08/01 08:17:06;;;;;;;4.00;3.60;;;;;;;-144.30;26.87;80378.56;5109702;28;20226;-53
2023/08/01 08:20:03;;;;;;;3.08;2.90;;;;;;;-144.30;26.85;80295.19;5110300;28;20298;-53
2023/08/01 08:23:08;;;;;;;4.50;4.10;;;;;;;-144.30;27.19;80481.78;5112037;28;20226;-51
2023/08/01 08:26:02;;;;;;;3.88;3.45;;;;;;;-144.30;27.10;80469.88;5113322;28;20217;-51
2023/08/01 08:31:50;;;;;;;3.80;3.50;;;;;;;-144.30;28.51;80910.59;5113710;28;20352;-50
2023/08/01 08:34:38;;;;;;;3.45;3.15;;;;;;;-144.30;29.36;81202.44;5112981;28;20198;-50
2023/08/01 08:37:20;;;;;;;7.53;3.72;;;;;;;-144.30;29.25;81216.34;5113216;28;20195;-53
2023/08/01 08:40:08;;;;;;;3.92;3.58;;;;;;;-144.30;29.40;81144.88;5113379;28;20197;-51
2023/08/01 08:42:56;;;;;;;3.40;3.10;;;;;;;-144.30;29.00;81182.59;5113022;28;20293;-54
2023/08/01 08:45:50;;;;;;;3.90;3.70;;;;;;;-144.30;29.18;81154.78;5112180;28;20228;-52
2023/08/01 08:48:31;;;;;;;5.63;3.38;;;;;;;-144.30;30.15;81331.50;5111726;28;20207;-49
2023/08/01 08:51:23;;;;;;;4.28;3.72;;;;;;;-144.30;30.76;81389.09;5112833;28;20204;-54
2023/08/01 08:54:15;;;;;;;3.90;3.58;;;;;;;-144.30;30.20;81426.81;5112959;28;20281;-50
2023/08/01 08:57:21;;;;;;;3.92;3.63;;;;;;;-144.30;30.56;81551.91;5112384;28;20663;-52
2023/08/01 09:00:17;;;;;;;4.38;3.53;;;;;;;-144.30;30.38;81454.63;5109526;28;20198;-55
2023/08/01 09:03:03;;;;;;;4.30;4.00;;;;;;;-144.30;30.02;81434.75;5112000;28;20194;-50
2023/08/01 09:06:01;;;;;;;3.85;3.55;;;;;;;-144.30;29.70;81355.34;5113039;28;20631;-53
2023/08/01 09:08:51;;;;;;;3.85;3.65;;;;;;;-144.30;29.77;81446.66;5112362;28;20197;-54
2023/08/01 09:12:05;;;;;;;3.83;3.53;;;;;;;-144.30;30.12;81508.22;5112816;28;20674;-50
2023/08/01 09:14:55;;;;;;;3.92;3.65;;;;;;;-144.30;30.64;81551.91;5113046;28;20642;-50
2023/08/01 09:17:46;;;;;;;4.13;3.72;;;;;;;-144.30;30.48;81532.06;5111610;28;20686;-49
2023/08/01 09:20:40;;;;;;;3.88;3.58;;;;;;;-144.30;30.28;81510.22;5109683;28;20194;-53
2023/08/01 09:23:30;;;;;;;6.05;4.20;;;;;;;-144.30;30.06;81488.38;5111029;28;20607;-50
2023/08/01 09:26:30;;;;;;;4.18;3.78;;;;;;;-144.30;30.57;81498.31;5111332;27;20765;-50
2023/08/01 09:29:22;;;;;;;5.82;4.05;;;;;;;-144.30;30.61;81569.78;5112367;28;20198;-52
2023/08/01 09:32:34;;;;;;;4.63;4.20;;;;;;;-144.30;29.89;81450.66;5108259;28;20199;-54
2023/08/01 09:35:26;;;;;;;4.10;3.90;;;;;;;-144.30;29.52;81331.50;5111457;28;20212;-53
2023/08/01 09:38:13;;;;;;;4.03;3.80;;;;;;;-144.30;29.78;81416.88;5111528;28;20238;-54
2023/08/01 09:41:10;;;;;;;3.80;3.60;;;;;;;-144.30;29.79;81401.00;5111543;28;20635;-55
2023/08/01 09:44:12;;;;;;;4.25;4.00;;;;;;;-144.30;29.51;81357.31;5112470;28;20601;-54
2023/08/01 09:47:21;;;;;;;4.18;3.75;;;;;;;-144.30;29.62;81377.16;5111554;28;20584;-50
2023/08/01 09:50:14;;;;;;;3.97;3.75;;;;;;;-144.30;29.58;81406.97;5111821;28;20202;-50
2023/08/01 09:53:05;;;;;;;4.80;4.50;;;;;;;-144.30;29.54;81391.06;5110399;28;20209;-55
2023/08/01 09:56:06;;;;;;;4.25;3.85;;;;;;;-144.30;30.06;81291.78;5111986;28;20285;-54
2023/08/01 09:58:57;;;;;;;3.92;3.72;;;;;;;-144.30;31.36;81583.69;5112021;28;20251;-49
2023/08/01 10:01:51;;;;;;;4.40;4.10;;;;;;;-144.30;31.95;81625.38;5111968;28;20247;-49
2023/08/01 10:04:50;;;;;;;7.15;4.07;;;;;;;-144.30;33.23;81867.66;5092695;28;20214;-51
2023/08/01 10:07:30;;;;;;;4.78;4.32;;;;;;;-144.30;33.33;81903.41;5111897;27;20238;-52
2023/08/01 10:10:14;;;;;;;4.63;4.30;;;;;;;-144.30;32.90;81788.22;5122045;27;20233;-49
2023/08/01 10:13:00;;;;;;;12.30;11.05;;;;;;;-144.30;32.58;81696.88;5116795;27;20199;-51
2023/08/01 10:15:58;;;;;;;6.93;5.97;;;;;;;-144.30;32.08;81754.47;5131634;27;20233;-51
2023/08/01 10:18:28;;;;;;;4.80;4.10;;;;;;;-144.30;32.67;81804.09;5124306;27;20313;-50
2023/08/01 10:21:02;;;;;;;5.82;4.22;;;;;;;-144.30;32.85;81821.97;5112177;27;20234;-49
2023/08/01 10:23:32;;;;;;;4.50;4.13;;;;;;;-144.30;32.93;81974.91;5111232;28;20599;-51
2023/08/01 10:26:05;;;;;;;4.30;4.00;;;;;;;-144.30;33.19;81947.09;5111020;28;20724;-50
2023/08/01 10:28:44;;;;;;;3.85;3.65;;;;;;;-144.30;33.12;81974.91;5111238;28;20198;-50
2023/08/01 10:31:16;;;;;;;5.53;4.40;;;;;;;-144.30;33.50;82153.63;5109860;28;20226;-54
2023/08/01 10:33:50;;;;;;;4.32;4.13;;;;;;;-144.30;33.31;82100.00;5117660;27;20665;-54
2023/08/01 10:36:21;;;;;;;4.15;3.90;;;;;;;-144.30;33.68;82121.88;5131817;27;20190;-55
2023/08/01 10:39:01;;;;;;;4.82;4.47;;;;;;;-144.30;33.52;82094.06;5131818;27;20197;-54
2023/08/01 10:41:35;;;;;;;4.38;4.05;;;;;;;-144.30;33.45;82080.16;5131716;27;20690;-51
2023/08/01 10:44:13;;;;;;;4.82;4.53;;;;;;;-144.30;33.68;82082.13;5131068;27;20205;-53
2023/08/01 10:46:55;;;;;;;4.60;4.25;;;;;;;-144.30;33.66;82864.72;5131548;27;20651;-50
2023/08/01 10:49:53;;;;;;;4.70;4.38;;;;;;;-144.30;34.18;82264.88;5131298;27;21316;-53
2023/08/01 10:52:42;;;;;;;4.97;4.72;;;;;;;-144.30;34.01;82276.78;5130654;27;20696;-50
2023/08/01 10:55:29;;;;;;;5.28;4.78;;;;;;;-144.30;34.49;82360.19;5131607;27;20266;-49
2023/08/01 10:58:07;;;;;;;4.70;4.47;;;;;;;-144.30;34.46;82366.16;5127911;27;20223;-54
2023/08/01 11:00:54;;;;;;;5.30;4.90;;;;;;;-144.30;34.88;82358.22;5110654;28;20202;-51
2023/08/01 11:03:24;;;;;;;5.05;4.85;;;;;;;-144.30;34.67;82354.25;5110696;28;20194;-49
2023/08/01 11:06:18;;;;;;;5.50;5.00;;;;;;;-144.30;35.35;82433.69;5109747;28;20305;-51
2023/08/01 11:09:22;;;;;;;5.20;4.82;;;;;;;-144.30;35.36;82463.47;5110404;28;20194;-49
2023/08/01 11:12:05;;;;;;;5.70;5.35;;;;;;;-144.30;35.50;82459.50;5109901;28;20660;-54
2023/08/01 11:14:58;;;;;;;5.45;5.15;;;;;;;-144.30;35.63;82497.25;5110265;28;20194;-53
2023/08/01 11:20:29;;;;;;;6.40;5.75;;;;;;;-144.30;35.05;82459.50;5117521;27;20228;-54
2023/08/01 11:23:20;;;;;;;7.13;6.65;;;;;;;-144.30;35.61;82415.81;5130430;27;20229;-54
2023/08/01 11:26:35;;;;;;;6.95;5.68;;;;;;;-144.30;35.82;82374.09;5110050;28;20241;-54
2023/08/01 11:29:07;;;;;;;6.93;5.70;;;;;;;-144.30;35.24;82330.41;5110009;28;20230;-54
2023/08/01 11:31:40;;;;;;;7.15;5.68;;;;;;;-144.30;35.11;82276.78;5110126;28;20686;-54
2023/08/01 11:34:17;;;;;;;6.40;5.75;;;;;;;-144.30;35.18;82336.38;5110156;28;20196;-49
2023/08/01 11:36:46;;;;;;;5.30;5.00;;;;;;;-144.30;35.36;82332.38;5109972;28;20662;-49
2023/08/01 11:39:23;;;;;;;5.32;4.93;;;;;;;-144.30;35.27;82403.91;5110247;28;20247;-50
2023/08/01 11:41:56;;;;;;;5.82;5.53;;;;;;;-144.30;35.17;82435.66;5109673;28;20213;-54
2023/08/01 11:44:29;;;;;;;6.35;6.05;;;;;;;-144.30;35.12;82368.13;5108693;28;20260;-54
2023/08/01 11:46:59;;;;;;;6.25;5.95;;;;;;;-144.30;35.15;82372.13;5109568;28;20655;-49
2023/08/01 11:49:28;;;;;;;6.20;5.68;;;;;;;-144.30;34.92;82318.50;5110231;28;20658;-51
2023/08/01 11:51:59;;;;;;;6.75;5.72;;;;;;;-144.30;34.89;82336.38;5109685;28;20195;-49
2023/08/01 11:54:28;;;;;;;6.30;5.80;;;;;;;-144.30;35.09;82372.13;5108831;28;20601;-54
2023/08/01 12:00:09;;;;;;;6.70;6.30;;;;;;;-144.30;35.21;82388.00;5109103;28;20565;-54
2023/08/01 12:02:41;;;;;;;6.57;6.10;;;;;;;-144.30;35.01;82368.13;5106699;28;20207;-54
2023/08/01 12:05:31;;;;;;;6.38;5.90;;;;;;;-144.30;35.25;82393.97;5108956;28;20226;-49
2023/08/01 12:08:32;;;;;;;6.30;5.80;;;;;;;-144.30;35.31;82388.00;5108545;28;20197;-53
2023/08/01 12:14:32;;;;;;;6.45;5.85;;;;;;;-144.30;35.42;82409.84;5108398;28;20592;-51
2023/08/01 12:17:15;;;;;;;6.50;5.72;;;;;;;-144.30;35.58;82421.78;5108951;28;20198;-51
2023/08/01 12:19:46;;;;;;;5.93;5.55;;;;;;;-144.30;35.61;82390.00;5114538;28;20198;-50
2023/08/01 12:22:15;;;;;;;6.15;5.85;;;;;;;-144.30;35.45;82395.94;5129361;28;20197;-54
2023/08/01 12:24:49;;;;;;;6.65;6.25;;;;;;;-144.30;35.71;82419.78;5089078;28;20283;-54
2023/08/01 12:27:27;;;;;;;5.95;5.65;;;;;;;-144.30;35.81;82407.88;5089492;28;20574;-53
2023/08/01 12:30:04;;;;;;;7.00;6.40;;;;;;;-144.30;35.56;82384.03;5089150;28;20195;-55
2023/08/01 12:32:37;;;;;;;6.38;5.97;;;;;;;-144.30;35.72;82399.91;5089129;28;20237;-53
2023/08/01 12:35:25;;;;;;;6.60;6.28;;;;;;;-144.30;35.71;82411.84;5088478;28;20266;-54
2023/08/01 12:38:14;;;;;;;6.30;5.90;;;;;;;-144.30;35.60;82447.59;5089051;28;20235;-54
2023/08/01 12:41:05;;;;;;;6.05;5.65;;;;;;;-144.30;35.27;82395.94;5081021;28;20785;-50
2023/08/01 12:44:03;;;;;;;5.97;5.60;;;;;;;-144.30;35.39;82417.78;5089201;28;20272;-54
2023/08/01 12:47:05;;;;;;;6.60;6.20;;;;;;;-144.30;35.14;82324.44;5089270;28;20215;-54
2023/08/01 12:50:03;;;;;;;7.22;6.65;;;;;;;-144.30;35.28;82354.25;5088765;28;20221;-50
2023/08/01 12:52:53;;;;;;;6.05;5.65;;;;;;;-144.30;35.01;82316.50;5088949;28;20244;-51
2023/08/01 12:55:28;;;;;;;6.18;5.68;;;;;;;-144.30;35.17;82390.00;5083281;28;20244;-54
2023/08/01 12:58:07;;;;;;;6.50;6.20;;;;;;;-144.30;35.11;82415.81;5088600;28;20731;-53
2023/08/01 13:00:57;;;;;;;6.13;5.82;;;;;;;-144.30;35.10;82157.63;5088783;28;20204;-50
2023/08/01 13:03:53;;;;;;;6.95;6.45;;;;;;;-144.30;35.09;82356.22;5088681;28;20227;-54
2023/08/01 13:06:41;;;;;;;6.13;5.70;;;;;;;-144.30;35.23;82388.00;5088656;28;20626;-50
2023/08/01 13:09:42;;;;;;;6.07;5.57;;;;;;;-144.30;35.22;82390.00;5091699;28;20203;-50
2023/08/01 13:15:11;;;;;;;6.85;6.35;;;;;;;-144.30;35.09;82421.78;5082587;28;20691;-54
2023/08/01 13:18:05;;;;;;;6.32;6.00;;;;;;;-144.30;35.20;82409.84;5092295;28;20202;-54
2023/08/01 13:21:04;;;;;;;6.00;5.60;;;;;;;-144.30;35.22;82443.63;5088169;28;20208;-50
2023/08/01 13:23:52;;;;;;;5.93;5.53;;;;;;;-144.30;35.15;82463.47;5092022;28;20242;-50
2023/08/01 13:26:58;;;;;;;;;;;;;;;;;;;;;
2023/08/01 13:29:50;;;;;;;7.20;6.40;;;;;;;-144.30;35.00;82395.94;5112676;27;20194;-55
2023/08/01 13:35:39;;;;;;;6.90;6.38;;;;;;;-144.30;35.13;82360.19;5131231;27;20202;-50
2023/08/01 13:38:32;;;;;;;6.65;6.15;;;;;;;-144.30;34.67;82415.81;5130192;27;20721;-51
2023/08/01 13:41:08;;;;;;;6.15;5.85;;;;;;;-144.30;34.57;82336.38;5130526;27;20281;-52
2023/08/01 13:43:59;;;;;;;6.20;5.78;;;;;;;-144.30;34.76;82360.19;5132987;27;20697;-53
2023/08/01 13:46:45;;;;;;;9.15;8.55;;;;;;;-144.30;34.97;82399.91;5131743;27;20218;-50
2023/08/01 13:49:43;;;;;;;7.63;7.20;;;;;;;-144.30;35.23;82411.84;5132377;27;20198;-50
2023/08/01 13:52:31;;;;;;;6.18;5.78;;;;;;;-144.30;34.74;82391.97;5131958;27;20202;-49
2023/08/01 13:55:29;;;;;;;6.60;6.10;;;;;;;-144.30;34.65;82372.13;5132151;27;20251;-53
2023/08/01 14:01:01;;;;;;;6.97;6.35;;;;;;;-144.30;35.17;82417.78;5130869;27;20293;-54